Time;durP1;ratioP1;P1;durP2;ratioP2;P2;SDS_P1;SDS_P2;PMS_P1;PMS_P2;Temp;Humidity;BMP_temperature;BMP_pressure;BME280_temperature;BME280_humidity;BME280_pressure;Samples;Min_cycle;Max_cycle;Signal;HPM_P1;HPM_P2
2021/03/24 00:00:19;;;;;;;37.73;27.30;;;;;;;;;;5081636;28;20179;-70
2021/03/24 00:02:45;;;;;;;37.60;25.77;;;;;;;;;;5081549;28;20203;-70
2021/03/24 00:05:12;;;;;;;36.00;26.27;;;;;;;;;;5087723;28;20193;-68
2021/03/24 00:07:39;;;;;;;36.53;25.77;;;;;;;;;;5079872;28;20178;-70
2021/03/24 00:10:05;;;;;;;34.67;24.53;;;;;;;;;;5077634;28;20175;-70
2021/03/24 00:12:35;;;;;;;31.87;24.20;;;;;;;;;;5084808;28;20203;-68
2021/03/24 00:15:01;;;;;;;35.20;25.67;;;;;;;;;;5080557;28;20592;-70
2021/03/24 00:17:27;;;;;;;30.67;24.03;;;;;;;;;;5082158;28;20186;-68
2021/03/24 00:19:53;;;;;;;35.37;23.97;;;;;;;;;;5085597;28;20190;-68
2021/03/24 00:22:19;;;;;;;34.07;24.33;;;;;;;;;;5082908;28;20647;-68
2021/03/24 00:24:45;;;;;;;40.77;27.13;;;;;;;;;;5080866;28;20244;-68
2021/03/24 00:27:11;;;;;;;35.63;26.13;;;;;;;;;;5092747;28;20214;-69
2021/03/24 00:29:37;;;;;;;38.47;26.97;;;;;;;;;;5083869;28;20206;-68
2021/03/24 00:32:03;;;;;;;35.33;26.73;;;;;;;;;;5093112;28;20178;-68
2021/03/24 00:34:29;;;;;;;34.90;27.07;;;;;;;;;;5093208;28;20183;-69
2021/03/24 00:36:55;;;;;;;37.47;25.47;;;;;;;;;;5089747;28;20719;-68
2021/03/24 00:39:21;;;;;;;35.30;23.83;;;;;;;;;;5093477;28;20270;-69
2021/03/24 00:41:47;;;;;;;31.93;23.07;;;;;;;;;;5089097;28;20664;-68
2021/03/24 00:44:14;;;;;;;32.67;23.97;;;;;;;;;;5085098;28;20205;-68
2021/03/24 00:46:40;;;;;;;35.07;23.17;;;;;;;;;;5089755;28;20203;-69
2021/03/24 00:49:06;;;;;;;35.80;24.40;;;;;;;;;;5089573;28;20186;-68
2021/03/24 00:51:32;;;;;;;29.57;20.87;;;;;;;;;;5084955;28;20183;-68
2021/03/24 00:53:58;;;;;;;30.23;22.47;;;;;;;;;;5088936;28;20624;-69
2021/03/24 00:56:24;;;;;;;29.27;22.97;;;;;;;;;;5095910;28;20181;-69
2021/03/24 00:58:50;;;;;;;30.53;22.87;;;;;;;;;;5085277;28;20284;-69
2021/03/24 01:01:16;;;;;;;29.17;21.30;;;;;;;;;;5087668;28;20190;-69
2021/03/24 01:03:42;;;;;;;30.43;21.77;;;;;;;;;;5083908;28;20208;-69
2021/03/24 01:06:09;;;;;;;33.27;22.10;;;;;;;;;;5084133;28;20289;-69
2021/03/24 01:08:35;;;;;;;29.53;21.40;;;;;;;;;;5086401;28;20187;-69
2021/03/24 01:11:01;;;;;;;30.30;22.50;;;;;;;;;;5085459;28;20182;-68
2021/03/24 01:13:28;;;;;;;31.50;21.97;;;;;;;;;;5085032;28;20194;-69
2021/03/24 01:15:54;;;;;;;40.97;25.57;;;;;;;;;;5087356;28;20474;-68
2021/03/24 01:18:21;;;;;;;32.53;22.37;;;;;;;;;;5088335;28;20723;-68
2021/03/24 01:20:48;;;;;;;31.10;22.77;;;;;;;;;;5081682;28;20210;-68
2021/03/24 01:23:14;;;;;;;36.80;23.37;;;;;;;;;;5095093;28;20273;-68
2021/03/24 01:25:41;;;;;;;32.37;22.37;;;;;;;;;;5084756;28;20221;-68
2021/03/24 01:28:08;;;;;;;33.00;21.80;;;;;;;;;;5083922;28;20194;-69
2021/03/24 01:30:36;;;;;;;35.20;22.43;;;;;;;;;;5084704;28;20193;-68
2021/03/24 01:33:02;;;;;;;29.87;22.10;;;;;;;;;;5091291;28;20617;-68
2021/03/24 01:35:28;;;;;;;29.90;21.70;;;;;;;;;;5089518;28;20653;-68
2021/03/24 01:37:55;;;;;;;31.53;22.40;;;;;;;;;;5083427;28;20285;-68
2021/03/24 01:40:25;;;;;;;30.80;22.60;;;;;;;;;;5083318;28;20188;-68
2021/03/24 01:42:52;;;;;;;28.50;22.27;;;;;;;;;;5084904;28;20199;-68
2021/03/24 01:45:18;;;;;;;33.67;21.80;;;;;;;;;;5087506;28;20212;-69
2021/03/24 01:47:44;;;;;;;33.17;21.73;;;;;;;;;;5084620;28;20198;-68
2021/03/24 01:50:15;;;;;;;33.73;23.23;;;;;;;;;;5085470;28;20185;-68
2021/03/24 01:52:41;;;;;;;39.40;24.73;;;;;;;;;;5076954;28;20202;-68
2021/03/24 01:55:07;;;;;;;29.33;21.70;;;;;;;;;;5083713;28;20652;-68
2021/03/24 01:57:33;;;;;;;29.07;21.03;;;;;;;;;;5079670;28;20191;-68
2021/03/24 01:59:59;;;;;;;37.20;22.90;;;;;;;;;;5081950;28;20194;-68
2021/03/24 02:02:25;;;;;;;28.77;20.57;;;;;;;;;;5081945;28;20210;-68
2021/03/24 02:04:52;;;;;;;31.43;20.67;;;;;;;;;;5082831;28;20189;-68
2021/03/24 02:07:38;;;;;;;32.67;21.17;;;;;;;;;;5081969;28;20287;-68
2021/03/24 02:10:10;;;;;;;35.13;21.77;;;;;;;;;;5082744;28;20181;-69
2021/03/24 02:12:43;;;;;;;27.97;20.10;;;;;;;;;;5084897;28;21634;-68
2021/03/24 02:15:17;;;;;;;27.43;20.37;;;;;;;;;;5086094;28;20224;-68
2021/03/24 02:17:44;;;;;;;29.13;21.47;;;;;;;;;;5089713;28;20184;-69
2021/03/24 02:20:10;;;;;;;28.27;20.67;;;;;;;;;;5083069;28;20186;-68
2021/03/24 02:22:41;;;;;;;28.40;20.73;;;;;;;;;;5078184;28;20721;-69
2021/03/24 02:25:22;;;;;;;34.17;20.67;;;;;;;;;;5080771;28;20225;-68
2021/03/24 02:27:50;;;;;;;33.03;21.30;;;;;;;;;;5081466;28;20578;-68
2021/03/24 02:30:37;;;;;;;28.77;20.10;;;;;;;;;;5083218;28;20318;-68
2021/03/24 02:33:08;;;;;;;37.27;22.87;;;;;;;;;;5093842;28;20233;-69
2021/03/24 02:35:35;;;;;;;34.37;20.57;;;;;;;;;;5086310;28;20178;-67
2021/03/24 02:38:03;;;;;;;35.23;22.73;;;;;;;;;;5089533;28;20187;-68
2021/03/24 02:40:30;;;;;;;29.93;21.80;;;;;;;;;;5092064;28;20193;-68
2021/03/24 02:42:57;;;;;;;37.73;21.90;;;;;;;;;;5081422;28;20720;-68
2021/03/24 02:45:26;;;;;;;37.23;22.50;;;;;;;;;;5083504;28;20316;-68
2021/03/24 02:47:52;;;;;;;32.27;22.33;;;;;;;;;;5084138;28;20240;-69
2021/03/24 02:50:20;;;;;;;29.70;21.43;;;;;;;;;;5082372;28;20252;-68
2021/03/24 02:52:46;;;;;;;34.47;22.03;;;;;;;;;;5079588;28;20217;-68
2021/03/24 02:55:15;;;;;;;29.57;21.53;;;;;;;;;;5086949;28;20189;-68
2021/03/24 02:57:40;;;;;;;30.70;21.50;;;;;;;;;;5084832;28;20189;-69
2021/03/24 03:00:10;;;;;;;36.20;22.87;;;;;;;;;;5076806;28;20238;-68
2021/03/24 03:02:37;;;;;;;30.97;21.80;;;;;;;;;;5087611;28;20204;-69
2021/03/24 03:05:06;;;;;;;28.47;21.20;;;;;;;;;;5084841;28;20204;-68
2021/03/24 03:07:43;;;;;;;32.37;22.00;;;;;;;;;;5082372;28;20219;-68
2021/03/24 03:10:15;;;;;;;34.80;24.37;;;;;;;;;;5087526;28;20209;-68
2021/03/24 03:12:48;;;;;;;34.20;24.17;;;;;;;;;;5088792;28;20203;-68
2021/03/24 03:15:14;;;;;;;31.40;22.70;;;;;;;;;;5087021;28;20796;-68
2021/03/24 03:18:10;;;;;;;33.13;22.73;;;;;;;;;;5084868;28;20220;-68
2021/03/24 03:20:40;;;;;;;29.97;22.03;;;;;;;;;;5079444;28;20197;-68
2021/03/24 03:23:15;;;;;;;32.03;22.67;;;;;;;;;;5081873;28;20210;-70
2021/03/24 03:25:42;;;;;;;35.80;22.97;;;;;;;;;;5090984;28;20280;-68
2021/03/24 03:28:10;;;;;;;31.23;22.07;;;;;;;;;;5085655;28;20262;-68
2021/03/24 03:30:39;;;;;;;28.93;20.93;;;;;;;;;;5084870;28;20178;-70
2021/03/24 03:33:07;;;;;;;26.60;21.00;;;;;;;;;;5096180;28;20217;-70
2021/03/24 03:35:34;;;;;;;31.20;23.43;;;;;;;;;;5076988;28;20317;-67
2021/03/24 03:38:01;;;;;;;32.13;23.77;;;;;;;;;;5084997;28;20187;-68
2021/03/24 03:40:29;;;;;;;34.77;25.03;;;;;;;;;;5086979;28;20596;-70
2021/03/24 03:42:55;;;;;;;40.23;24.73;;;;;;;;;;5096255;28;20205;-70
2021/03/24 03:45:22;;;;;;;30.77;22.97;;;;;;;;;;5088645;28;20201;-70
2021/03/24 03:47:48;;;;;;;27.80;20.77;;;;;;;;;;5081154;28;20177;-67
2021/03/24 03:50:16;;;;;;;30.60;21.97;;;;;;;;;;5085188;28;20190;-67
2021/03/24 03:52:50;;;;;;;32.67;23.37;;;;;;;;;;5092092;28;20205;-68
2021/03/24 03:55:16;;;;;;;30.33;22.13;;;;;;;;;;5082678;28;20270;-69
2021/03/24 03:57:42;;;;;;;29.43;22.27;;;;;;;;;;5087000;28;20200;-68
2021/03/24 04:00:12;;;;;;;30.43;22.03;;;;;;;;;;5094436;28;20244;-68
2021/03/24 04:02:45;;;;;;;33.17;22.33;;;;;;;;;;5090576;28;20777;-69
2021/03/24 04:05:14;;;;;;;30.47;22.57;;;;;;;;;;5090575;28;20242;-70
2021/03/24 04:07:43;;;;;;;41.43;27.40;;;;;;;;;;5083970;28;20264;-68
2021/03/24 04:10:09;;;;;;;35.87;25.87;;;;;;;;;;5081757;28;20186;-68
2021/03/24 04:12:37;;;;;;;39.37;27.13;;;;;;;;;;5089711;28;20231;-69
2021/03/24 04:15:08;;;;;;;35.00;26.03;;;;;;;;;;5083620;28;20253;-68
2021/03/24 04:17:38;;;;;;;38.13;25.43;;;;;;;;;;5087127;28;20186;-68
2021/03/24 04:20:06;;;;;;;36.00;26.07;;;;;;;;;;5082556;28;20190;-70
2021/03/24 04:22:32;;;;;;;32.57;24.27;;;;;;;;;;5084920;28;20255;-70
2021/03/24 04:24:59;;;;;;;35.07;24.53;;;;;;;;;;5086044;28;20210;-69
2021/03/24 04:27:27;;;;;;;34.13;23.83;;;;;;;;;;5086379;28;20714;-70
2021/03/24 04:30:06;;;;;;;35.27;24.27;;;;;;;;;;5092688;28;20571;-68
2021/03/24 04:32:32;;;;;;;39.70;25.23;;;;;;;;;;5085411;28;20259;-68
2021/03/24 04:34:58;;;;;;;31.97;25.43;;;;;;;;;;5090570;28;20641;-68
2021/03/24 04:37:38;;;;;;;38.90;24.40;;;;;;;;;;5088622;28;20182;-68
2021/03/24 04:40:04;;;;;;;32.50;23.17;;;;;;;;;;5088041;28;20191;-68
2021/03/24 04:42:33;;;;;;;38.37;25.40;;;;;;;;;;5089132;28;20289;-68
2021/03/24 04:45:03;;;;;;;36.13;26.30;;;;;;;;;;5088563;28;20189;-68
2021/03/24 04:47:31;;;;;;;34.23;25.13;;;;;;;;;;5086247;28;20751;-68
2021/03/24 04:50:00;;;;;;;35.37;24.63;;;;;;;;;;5087090;28;20210;-68
2021/03/24 04:52:27;;;;;;;33.13;24.03;;;;;;;;;;5090924;28;20284;-67
2021/03/24 04:54:55;;;;;;;39.60;26.03;;;;;;;;;;5090557;28;20184;-68
2021/03/24 04:57:24;;;;;;;38.70;25.57;;;;;;;;;;5086560;28;20186;-68
2021/03/24 04:59:52;;;;;;;32.50;24.23;;;;;;;;;;5079766;28;20178;-68
2021/03/24 05:02:21;;;;;;;36.90;25.57;;;;;;;;;;5092718;28;20184;-69
2021/03/24 05:04:51;;;;;;;34.30;23.90;;;;;;;;;;5087963;28;20185;-68
2021/03/24 05:07:37;;;;;;;33.60;23.83;;;;;;;;;;5088939;28;20336;-68
2021/03/24 05:10:06;;;;;;;30.77;22.77;;;;;;;;;;5080028;28;20533;-69
2021/03/24 05:12:37;;;;;;;34.20;23.93;;;;;;;;;;5085071;28;20204;-68
2021/03/24 05:15:10;;;;;;;30.10;21.37;;;;;;;;;;5087808;28;20209;-68
2021/03/24 05:17:39;;;;;;;31.57;21.87;;;;;;;;;;5084491;28;20765;-68
2021/03/24 05:20:10;;;;;;;33.13;21.03;;;;;;;;;;5083627;28;20662;-68
2021/03/24 05:22:43;;;;;;;33.87;23.07;;;;;;;;;;5076717;28;20206;-68
2021/03/24 05:25:22;;;;;;;30.10;22.63;;;;;;;;;;5086038;28;20195;-69
2021/03/24 05:28:06;;;;;;;29.13;21.03;;;;;;;;;;5080009;28;20180;-68
2021/03/24 05:30:34;;;;;;;31.83;21.63;;;;;;;;;;5084295;28;20242;-69
2021/03/24 05:33:06;;;;;;;30.30;21.57;;;;;;;;;;5085957;28;20209;-68
2021/03/24 05:35:32;;;;;;;30.33;22.73;;;;;;;;;;5087391;28;21351;-68
2021/03/24 05:38:06;;;;;;;34.90;24.87;;;;;;;;;;5076860;28;20274;-68
2021/03/24 05:40:41;;;;;;;33.30;23.50;;;;;;;;;;5091744;28;20239;-68
2021/03/24 05:43:26;;;;;;;29.27;21.80;;;;;;;;;;5092244;28;20209;-68
2021/03/24 05:46:30;;;;;;;33.37;23.10;;;;;;;;;;5086226;28;20237;-68
2021/03/24 05:49:01;;;;;;;33.13;22.97;;;;;;;;;;5093569;28;20217;-68
2021/03/24 05:51:31;;;;;;;37.70;24.93;;;;;;;;;;5089854;28;20595;-68
2021/03/24 05:54:06;;;;;;;36.67;24.57;;;;;;;;;;5090812;28;20804;-68
2021/03/24 05:56:35;;;;;;;38.07;22.03;;;;;;;;;;5089308;28;20249;-68
2021/03/24 05:59:16;;;;;;;30.53;21.13;;;;;;;;;;5074670;28;20185;-68
2021/03/24 06:01:45;;;;;;;33.37;21.87;;;;;;;;;;5064341;28;20202;-68
2021/03/24 06:04:16;;;;;;;36.93;27.30;;;;;;;;;;5075889;28;20632;-69
2021/03/24 06:07:00;;;;;;;44.33;27.47;;;;;;;;;;5088847;28;20233;-70
2021/03/24 06:09:44;;;;;;;32.23;23.67;;;;;;;;;;5081752;28;20188;-68
2021/03/24 06:12:12;;;;;;;35.77;24.47;;;;;;;;;;5086987;28;20212;-67
2021/03/24 06:14:46;;;;;;;36.10;25.87;;;;;;;;;;5088170;28;20200;-67
2021/03/24 06:17:15;;;;;;;38.97;29.50;;;;;;;;;;5086756;28;20194;-70
2021/03/24 06:19:47;;;;;;;34.23;25.53;;;;;;;;;;5085068;28;20196;-68
2021/03/24 06:22:32;;;;;;;30.63;24.63;;;;;;;;;;5081145;28;20194;-67
2021/03/24 06:24:58;;;;;;;35.00;23.47;;;;;;;;;;5076573;28;20240;-67
2021/03/24 06:27:44;;;;;;;34.20;24.07;;;;;;;;;;5084394;28;20211;-68
2021/03/24 06:30:13;;;;;;;33.57;23.40;;;;;;;;;;5086442;28;20194;-68
2021/03/24 06:33:01;;;;;;;32.60;21.90;;;;;;;;;;5090144;28;20204;-68
2021/03/24 06:35:33;;;;;;;22.23;17.17;;;;;;;;;;5083026;28;20187;-68
2021/03/24 06:38:18;;;;;;;22.43;17.50;;;;;;;;;;5088153;28;20834;-68
2021/03/24 06:41:03;;;;;;;22.93;16.13;;;;;;;;;;5079196;28;20855;-67
2021/03/24 06:43:32;;;;;;;21.07;15.97;;;;;;;;;;5082622;28;20205;-67
2021/03/24 06:46:13;;;;;;;22.57;17.37;;;;;;;;;;5080806;28;20754;-68
2021/03/24 06:48:49;;;;;;;22.70;16.67;;;;;;;;;;5088607;28;20843;-68
2021/03/24 06:51:33;;;;;;;21.40;16.33;;;;;;;;;;5087915;28;20181;-68
2021/03/24 06:54:11;;;;;;;19.90;15.67;;;;;;;;;;5084649;28;20709;-68
2021/03/24 06:56:56;;;;;;;24.63;15.57;;;;;;;;;;5077740;28;20685;-69
2021/03/24 06:59:40;;;;;;;22.07;16.17;;;;;;;;;;5084450;28;20209;-68
2021/03/24 07:02:22;;;;;;;16.50;13.90;;;;;;;;;;5080573;28;20194;-68
2021/03/24 07:05:07;;;;;;;17.30;14.33;;;;;;;;;;5090464;28;20186;-68
2021/03/24 07:07:58;;;;;;;19.10;13.17;;;;;;;;;;5076127;28;20268;-69
2021/03/24 07:10:43;;;;;;;15.43;13.60;;;;;;;;;;5081898;28;20186;-68
2021/03/24 07:13:27;;;;;;;16.40;14.23;;;;;;;;;;5080211;28;20290;-68
2021/03/24 07:16:15;;;;;;;19.30;14.50;;;;;;;;;;5079751;28;20178;-70
2021/03/24 07:18:44;;;;;;;17.03;15.17;;;;;;;;;;5081565;28;20191;-69
2021/03/24 07:21:42;;;;;;;17.67;15.63;;;;;;;;;;5082363;28;20264;-70
2021/03/24 07:24:27;;;;;;;14.80;12.80;;;;;;;;;;5077368;28;20248;-70
2021/03/24 07:27:10;;;;;;;15.93;13.57;;;;;;;;;;5081590;28;20691;-69
2021/03/24 07:29:45;;;;;;;18.77;13.40;;;;;;;;;;5080274;28;20638;-68
2021/03/24 07:32:17;;;;;;;18.60;13.63;;;;;;;;;;5086884;28;20203;-69
2021/03/24 07:34:49;;;;;;;21.27;14.57;;;;;;;;;;5079970;28;20177;-67
2021/03/24 07:37:15;;;;;;;15.37;13.77;;;;;;;;;;5083870;28;20186;-68
2021/03/24 07:40:00;;;;;;;19.20;14.63;;;;;;;;;;5080873;28;20296;-68
2021/03/24 07:42:26;;;;;;;17.30;14.00;;;;;;;;;;5083472;28;20206;-68
2021/03/24 07:45:08;;;;;;;18.40;14.13;;;;;;;;;;5082387;28;20849;-68
2021/03/24 07:47:34;;;;;;;16.60;13.32;;;;;;;;;;5082767;28;20218;-68
2021/03/24 07:50:11;;;;;;;20.92;13.55;;;20.10;30.50;;;;;;5089026;28;20266;-68
2021/03/24 07:52:55;;;;;;;14.07;12.52;;;13.90;64.30;;;;;;5095439;28;20237;-68
2021/03/24 07:55:41;;;;;;;17.27;14.20;;;14.70;65.50;;;;;;5095092;28;20234;-69
2021/03/24 07:58:15;;;;;;;17.27;13.95;;;;;;;;;;5082615;28;20183;-68
2021/03/24 08:00:51;;;;;;;18.23;14.63;;;15.50;58.20;;;;;;5083883;28;20512;-69
2021/03/24 08:03:27;;;;;;;14.25;12.80;;;17.00;57.10;;;;;;5087669;28;20251;-69
2021/03/24 08:06:11;;;;;;;17.65;14.98;;;17.50;53.70;;;;;;5089137;28;20232;-69
2021/03/24 08:08:47;;;;;;;17.95;14.25;;;18.40;50.10;;;;;;5077152;28;20205;-70
2021/03/24 08:11:33;;;;;;;16.70;13.90;;;19.30;49.60;;;;;;5089210;28;20182;-69
2021/03/24 08:14:28;;;;;;;18.48;15.48;;;19.70;48.10;;;;;;5089921;28;20226;-69
2021/03/24 08:17:35;;;;;;;19.48;15.80;;;19.90;44.30;;;;;;5081410;28;20202;-69
2021/03/24 08:20:12;;;;;;;20.98;14.50;;;19.80;44.00;;;;;;5052528;28;20221;-70
2021/03/24 08:23:01;;;;;;;17.45;14.18;;;20.30;42.10;;;;;;5061624;28;20215;-70
2021/03/24 08:26:04;;;;;;;15.80;14.10;;;20.70;41.60;;;;;;5065339;28;20319;-69
2021/03/24 08:28:39;;;;;;;15.13;13.52;;;21.50;41.00;;;;;;5067130;28;20220;-70
2021/03/24 08:31:18;;;;;;;19.10;14.57;;;21.60;37.70;;;;;;5066018;28;20187;-69
2021/03/24 08:34:18;;;;;;;15.63;14.00;;;21.50;39.20;;;;;;5054786;28;21125;-70
2021/03/24 08:36:51;;;;;;;18.05;13.93;;;;;;;;;;5059646;28;20175;-69
2021/03/24 08:39:32;;;;;;;17.48;13.57;;;;;;;;;;5057680;28;20207;-69
2021/03/24 08:42:04;;;;;;;17.10;14.35;;;;;;;;;;5067787;28;20305;-69
2021/03/24 08:44:33;;;;;;;19.02;14.90;;;;;;;;;;5069287;28;20191;-69
2021/03/24 08:47:02;;;;;;;16.98;14.70;;;;;;;;;;5067201;28;20216;-69
2021/03/24 08:49:30;;;;;;;15.65;13.93;;;;;;;;;;5063649;28;20749;-69
2021/03/24 08:51:57;;;;;;;19.10;14.52;;;;;;;;;;5056782;28;20187;-69
2021/03/24 08:54:48;;;;;;;16.75;14.40;;;;;;;;;;5081654;28;20214;-69
2021/03/24 08:57:24;;;;;;;16.45;14.57;;;;;;;;;;5084174;28;20178;-68
2021/03/24 08:59:51;;;;;;;18.58;14.23;;;;;;;;;;5078538;28;20225;-69
2021/03/24 09:02:28;;;;;;;16.33;14.50;;;22.10;39.50;;;;;;5090082;28;20189;-68
2021/03/24 09:05:13;;;;;;;15.55;13.50;;;;;;;;;;5091500;28;20209;-69
2021/03/24 09:07:48;;;;;;;15.93;14.18;;;;;;;;;;5088525;28;20206;-69
2021/03/24 09:10:23;;;;;;;16.67;13.93;;;;;;;;;;5087742;28;20621;-69
2021/03/24 09:12:56;;;;;;;16.77;15.07;;;;;;;;;;5080500;28;20192;-69
2021/03/24 09:15:25;;;;;;;15.75;13.73;;;;;;;;;;5086634;28;20680;-69
2021/03/24 09:17:51;;;;;;;15.38;13.80;;;;;;;;;;5090130;28;20186;-70
2021/03/24 09:20:35;;;;;;;14.95;12.98;;;;;;;;;;5080468;28;20218;-69
2021/03/24 09:23:01;;;;;;;14.88;13.38;;;;;;;;;;5087323;28;20351;-69
2021/03/24 09:25:56;;;;;;;18.30;13.30;;;;;;;;;;5088101;28;20225;-69
2021/03/24 09:28:46;;;;;;;22.05;19.90;;;;;;;;;;5042567;28;20200;-70
2021/03/24 09:31:21;;;;;;;16.50;14.20;;;;;;;;;;5081116;28;20187;-68
2021/03/24 09:33:52;;;;;;;13.82;12.35;;;;;;;;;;5081973;28;20206;-72
2021/03/24 09:36:18;;;;;;;13.30;12.05;;;;;;;;;;5088201;28;20585;-69
2021/03/24 09:38:46;;;;;;;14.60;13.15;;;;;;;;;;5085575;28;20613;-69
2021/03/24 09:41:18;;;;;;;14.77;13.27;;;;;;;;;;5081662;28;20199;-69
2021/03/24 09:43:46;;;;;;;14.75;13.00;;;;;;;;;;5087855;28;20213;-70
2021/03/24 09:46:18;;;;;;;14.55;11.75;;;;;;;;;;5089996;28;20213;-69
2021/03/24 09:48:46;;;;;;;11.68;10.57;;;;;;;;;;5080827;28;20653;-69
2021/03/24 09:51:35;;;;;;;13.77;12.45;;;;;;;;;;5077208;28;20190;-69
2021/03/24 09:54:21;;;;;;;14.32;11.45;;;;;;;;;;5082817;28;20578;-70
2021/03/24 09:56:57;;;;;;;12.57;11.30;;;;;;;;;;5088753;28;20183;-70
2021/03/24 09:59:35;;;;;;;13.40;11.48;;;;;;;;;;5084335;28;20273;-70
2021/03/24 10:02:24;;;;;;;13.63;12.27;;;25.20;33.00;;;;;;5082633;28;20206;-70
2021/03/24 10:05:12;;;;;;;14.30;12.80;;;30.10;26.90;;;;;;5089200;28;20542;-70
2021/03/24 10:07:57;;;;;;;14.68;12.52;;;29.40;27.90;;;;;;5085002;28;20699;-69
2021/03/24 10:10:28;;;;;;;13.38;11.80;;;29.80;27.80;;;;;;5085611;28;20213;-69
2021/03/24 10:13:05;;;;;;;12.18;10.82;;;30.40;28.00;;;;;;5077386;28;20198;-70
2021/03/24 10:15:39;;;;;;;12.40;11.27;;;31.10;25.70;;;;;;5081926;28;20257;-69
2021/03/24 10:18:10;;;;;;;11.57;10.38;;;30.60;26.40;;;;;;5087152;28;20190;-70
2021/03/24 10:20:50;;;;;;;12.18;10.77;;;30.60;26.10;;;;;;5086374;28;20187;-69
2021/03/24 10:23:21;;;;;;;12.88;10.13;;;30.90;26.50;;;;;;5088450;28;20201;-70
2021/03/24 10:25:55;;;;;;;13.20;11.38;;;31.60;27.50;;;;;;5091543;28;20208;-69
2021/03/24 10:28:33;;;;;;;11.60;10.07;;;30.70;25.40;;;;;;5083053;28;20713;-70
2021/03/24 10:31:05;;;;;;;12.10;10.90;;;30.70;26.10;;;;;;5081936;28;20174;-70
2021/03/24 10:33:52;;;;;;;11.48;10.38;;;30.60;26.80;;;;;;5089871;28;20198;-70
2021/03/24 10:36:21;;;;;;;12.55;11.07;;;;;;;;;;5085638;28;20410;-70
2021/03/24 10:38:49;;;;;;;13.15;10.85;;;;;;;;;;5093128;28;20209;-70
2021/03/24 10:41:25;;;;;;;11.00;10.00;;;;;;;;;;5086099;28;20182;-70
2021/03/24 10:44:09;;;;;;;10.15;9.25;;;;;;;;;;5086987;28;20201;-70
2021/03/24 10:46:41;;;;;;;9.80;8.82;;;;;;;;;;5088485;28;20194;-70
2021/03/24 10:49:24;;;;;;;9.43;8.50;;;31.10;26.00;;;;;;5088778;28;20181;-70
2021/03/24 10:52:07;;;;;;;9.88;8.88;;;33.30;24.50;;;;;;5089903;28;20174;-70
2021/03/24 10:54:35;;;;;;;11.30;10.05;;;33.30;25.10;;;;;;5085687;28;20170;-70
2021/03/24 10:57:16;;;;;;;9.93;8.80;;;;;;;;;;5075245;28;20217;-70
2021/03/24 10:59:46;;;;;;;11.00;9.90;;;;;;;;;;5076872;28;20186;-70
2021/03/24 11:02:11;;;;;;;9.57;8.63;;;32.40;23.80;;;;;;5082280;28;20269;-70
2021/03/24 11:05:04;;;;;;;9.38;8.57;;;34.80;25.70;;;;;;5078303;28;20228;-70
2021/03/24 11:07:44;;;;;;;10.60;9.52;;;35.00;25.00;;;;;;5080907;28;20205;-70
2021/03/24 11:10:10;;;;;;;9.80;8.90;;;34.80;22.80;;;;;;5088486;28;20207;-69
2021/03/24 11:12:50;;;;;;;11.65;9.50;;;34.50;24.90;;;;;;5085919;28;20194;-69
2021/03/24 11:15:42;;;;;;;11.57;8.43;;;34.00;23.40;;;;;;5081765;28;20260;-70
2021/03/24 11:18:12;;;;;;;9.60;8.45;;;34.30;23.90;;;;;;5079977;28;20179;-70
2021/03/24 11:21:01;;;;;;;10.35;9.23;;;34.70;25.00;;;;;;5085436;28;20202;-70
2021/03/24 11:23:44;;;;;;;9.20;8.30;;;35.00;25.50;;;;;;5077999;28;20193;-70
2021/03/24 11:26:30;;;;;;;10.82;9.73;;;35.20;25.00;;;;;;5072594;28;20212;-70
2021/03/24 11:29:01;;;;;;;9.05;8.25;;;34.10;23.10;;;;;;5081885;28;20325;-70
2021/03/24 11:31:31;;;;;;;9.07;8.23;;;;;;;;;;5079902;28;20176;-70
2021/03/24 11:34:13;;;;;;;10.00;9.00;;;;;;;;;;5087858;28;20261;-70
2021/03/24 11:36:45;;;;;;;10.70;9.50;;;;;;;;;;5085222;28;20186;-70
2021/03/24 11:39:35;;;;;;;11.60;10.40;;;34.10;25.00;;;;;;5077804;28;20197;-70
2021/03/24 11:42:17;;;;;;;11.02;9.93;;;35.10;24.80;;;;;;5082590;28;20538;-70
2021/03/24 11:44:45;;;;;;;12.00;9.77;;;34.60;24.80;;;;;;5084449;28;20186;-71
2021/03/24 11:47:48;;;;;;;9.77;8.77;;;34.50;23.30;;;;;;5088751;28;20258;-71
2021/03/24 11:50:27;;;;;;;11.20;9.55;;;34.60;25.20;;;;;;5082476;28;20181;-71
2021/03/24 11:53:11;;;;;;;10.75;9.35;;;34.50;24.20;;;;;;5082750;28;20198;-71
2021/03/24 11:55:49;;;;;;;10.98;9.80;;;35.00;24.90;;;;;;5085208;28;20217;-70
2021/03/24 11:58:44;;;;;;;11.18;9.88;;;34.90;24.20;;;;;;5082727;28;20566;-70
2021/03/24 12:01:43;;;;;;;14.18;10.38;;;35.20;24.50;;;;;;5079548;28;20216;-71
2021/03/24 12:04:29;;;;;;;10.70;9.70;;;35.20;24.00;;;;;;5083851;28;20197;-73
2021/03/24 12:07:11;;;;;;;10.13;9.13;;;34.90;24.00;;;;;;5074979;28;20209;-72
2021/03/24 12:09:38;;;;;;;10.20;8.63;;;;;;;;;;5081834;28;20189;-72
2021/03/24 12:12:13;;;;;;;11.82;8.18;;;34.40;23.30;;;;;;5070037;28;20649;-72
2021/03/24 12:14:41;;;;;;;10.05;9.05;;;35.00;25.20;;;;;;5078579;28;20216;-72
2021/03/24 12:17:42;;;;;;;10.80;9.75;;;35.20;23.00;;;;;;5076739;28;20189;-72
2021/03/24 12:20:14;;;;;;;9.27;8.38;;;35.10;24.70;;;;;;5055200;28;20213;-72
2021/03/24 12:22:53;;;;;;;9.15;8.25;;;35.40;25.00;;;;;;5058449;28;20351;-72
2021/03/24 12:25:20;;;;;;;10.20;8.30;;;35.50;24.20;;;;;;5066144;28;20194;-72
2021/03/24 12:28:06;;;;;;;9.93;8.93;;;36.00;23.70;;;;;;5061250;28;20264;-73
2021/03/24 12:30:40;;;;;;;8.65;7.82;;;35.80;22.40;;;;;;5066185;28;20770;-72
2021/03/24 12:33:15;;;;;;;10.60;8.55;;;35.80;23.50;;;;;;5056441;28;20206;-73
2021/03/24 12:35:46;;;;;;;13.00;9.18;;;36.00;23.10;;;;;;5053868;28;20185;-73
2021/03/24 12:38:13;;;;;;;9.13;8.15;;;35.70;24.00;;;;;;5066877;28;20213;-72
2021/03/24 12:40:51;;;;;;;9.80;8.80;;;;;;;;;;5055882;28;20195;-72
2021/03/24 12:43:36;;;;;;;9.68;8.50;;;;;;;;;;5049070;28;20191;-72
2021/03/24 12:46:20;;;;;;;9.70;8.40;;;;;;;;;;5063602;28;20206;-73
2021/03/24 12:48:47;;;;;;;16.05;9.13;;;;;;;;;;5063824;28;20215;-72
2021/03/24 12:51:19;;;;;;;9.82;8.82;;;;;;;;;;5059819;28;20179;-72
2021/03/24 12:53:52;;;;;;;9.15;8.25;;;;;;;;;;5068070;28;20228;-72
2021/03/24 12:56:40;;;;;;;10.85;8.18;;;;;;;;;;5076258;28;20182;-72
2021/03/24 12:59:15;;;;;;;8.50;7.70;;;;;;;;;;5075879;28;20178;-72
2021/03/24 13:02:10;;;;;;;7.93;7.05;;;34.30;24.30;;;;;;5082175;28;20748;-72
2021/03/24 13:04:57;;;;;;;8.82;7.85;;;32.00;25.40;;;;;;5059766;28;20214;-72
2021/03/24 13:07:38;;;;;;;8.07;6.60;;;32.50;24.60;;;;;;5055252;28;20272;-71
2021/03/24 13:10:34;;;;;;;8.13;7.32;;;32.80;23.60;;;;;;5053956;28;20198;-71
2021/03/24 13:13:13;;;;;;;8.98;6.50;;;;;;;;;;5065219;28;20317;-72
2021/03/24 13:15:48;;;;;;;7.10;6.40;;;;;;;;;;5058775;28;20231;-72
2021/03/24 13:18:14;;;;;;;8.35;5.40;;;;;;;;;;5052859;28;20259;-71
2021/03/24 13:20:45;;;;;;;6.18;5.43;;;;;;;;;;5057832;28;21714;-71
2021/03/24 13:23:19;;;;;;;6.95;6.22;;;32.70;25.60;;;;;;5049403;28;20214;-72
2021/03/24 13:25:53;;;;;;;7.00;5.60;;;33.00;22.40;;;;;;5061037;28;20191;-71
2021/03/24 13:28:47;;;;;;;7.68;6.22;;;32.90;24.70;;;;;;5058023;28;20190;-72
2021/03/24 13:31:37;;;;;;;8.63;5.80;;;33.10;24.80;;;;;;5059525;28;20185;-72
2021/03/24 13:34:30;;;;;;;7.28;5.82;;;33.40;24.40;;;;;;5062713;28;20744;-72
2021/03/24 13:36:58;;;;;;;7.38;5.65;;;33.50;24.50;;;;;;5056890;28;20183;-72
2021/03/24 13:39:23;;;;;;;7.63;5.53;;;33.10;24.30;;;;;;5060403;28;20646;-72
2021/03/24 13:41:54;;;;;;;7.88;4.95;;;33.20;24.40;;;;;;5075620;28;20217;-73
2021/03/24 13:44:49;;;;;;;6.43;4.70;;;33.10;23.70;;;;;;5081930;28;20201;-72
2021/03/24 13:47:27;;;;;;;6.78;5.40;;;33.30;24.20;;;;;;5080333;28;20592;-71
2021/03/24 13:49:58;;;;;;;8.75;6.85;;;;;;;;;;5085488;28;20209;-72
2021/03/24 13:52:44;;;;;;;8.00;6.78;;;;;;;;;;5085230;28;20181;-71
2021/03/24 13:55:29;;;;;;;10.27;6.72;;;;;;;;;;5083165;28;20186;-71
2021/03/24 13:58:13;;;;;;;7.75;5.80;;;;;;;;;;5085810;28;20193;-72
2021/03/24 14:00:49;;;;;;;10.40;6.45;;;32.90;22.20;;;;;;5083481;28;20190;-72
2021/03/24 14:03:43;;;;;;;10.10;6.47;;;32.70;24.90;;;;;;5083869;28;20354;-72
2021/03/24 14:06:45;;;;;;;7.47;5.72;;;32.80;24.50;;;;;;5080492;28;20193;-72
2021/03/24 14:09:19;;;;;;;7.28;5.53;;;;;;;;;;5084617;28;20187;-72
2021/03/24 14:11:45;;;;;;;7.25;6.18;;;;;;;;;;5074765;28;20758;-71
2021/03/24 14:14:20;;;;;;;12.65;6.60;;;;;;;;;;5087054;28;20293;-72
2021/03/24 14:16:51;;;;;;;7.75;6.18;;;;;;;;;;5073300;28;20184;-72
2021/03/24 14:19:35;;;;;;;6.82;6.13;;;;;;;;;;5076286;28;20541;-71
2021/03/24 14:22:17;;;;;;;8.15;5.68;;;;;;;;;;5080614;28;20660;-71
2021/03/24 14:25:02;;;;;;;9.40;6.25;;;;;;;;;;5078443;28;20199;-72
2021/03/24 14:27:36;;;;;;;13.07;5.82;;;;;;;;;;5067458;28;20747;-72
2021/03/24 14:30:13;;;;;;;10.15;6.22;;;;;;;;;;5074133;28;20181;-72
2021/03/24 14:33:04;;;;;;;12.18;6.20;;;;;;;;;;5080304;28;20208;-71